Time;durP1;ratioP1;P1;durP2;ratioP2;P2;SDS_P1;SDS_P2;PMS_P1;PMS_P2;Temp;Humidity;BMP_temperature;BMP_pressure;BME280_temperature;BME280_humidity;BME280_pressure;Samples;Min_cycle;Max_cycle;Signal;HPM_P1;HPM_P2
2022/10/13 00:02:27;;;;;;;;;6.00;5.00;;;;;22.25;52.53;101858.54;105712;1297;19807;-54
2022/10/13 00:04:54;;;;;;;;;7.00;7.00;;;;;22.25;52.62;101854.74;105666;1298;18114;-52
2022/10/13 00:07:21;;;;;;;;;7.00;7.00;;;;;22.25;52.67;101855.48;105645;1279;28288;-54
2022/10/13 00:09:48;;;;;;;;;8.00;6.50;;;;;22.24;52.57;101852.08;105637;1282;19772;-50
2022/10/13 00:12:16;;;;;;;;;5.00;5.00;;;;;22.24;52.47;101858.08;105667;1297;17937;-54
2022/10/13 00:14:43;;;;;;;;;6.00;6.00;;;;;22.24;52.44;101858.64;105628;1297;18520;-50
2022/10/13 00:17:10;;;;;;;;;6.50;6.00;;;;;22.24;52.56;101856.51;105645;1281;19896;-51
2022/10/13 00:19:37;;;;;;;;;7.00;7.00;;;;;22.24;52.67;101858.68;105631;1282;18072;-52
2022/10/13 00:22:05;;;;;;;;;7.00;6.00;;;;;22.24;52.58;101852.80;105623;1282;20041;-56
2022/10/13 00:24:32;;;;;;;;;5.50;5.50;;;;;22.24;52.44;101853.00;105629;1282;19928;-50
2022/10/13 00:26:59;;;;;;;;;6.00;6.00;;;;;22.24;52.61;101849.00;105650;1275;17787;-50
2022/10/13 00:29:26;;;;;;;;;5.50;5.50;;;;;22.24;52.41;101850.50;105619;1282;18496;-51
2022/10/13 00:31:53;;;;;;;;;7.00;6.00;;;;;22.24;52.53;101847.23;105629;1279;19719;-51
2022/10/13 00:34:21;;;;;;;;;5.00;5.00;;;;;22.23;52.47;101847.79;105612;1288;19526;-51
2022/10/13 00:36:48;;;;;;;;;10.00;7.00;;;;;22.23;52.54;101844.55;105639;1287;21548;-50
2022/10/13 00:39:15;;;;;;;;;5.50;5.50;;;;;22.22;52.36;101841.39;105689;1280;18128;-53
2022/10/13 00:41:42;;;;;;;;;6.00;6.00;;;;;22.22;52.40;101838.48;105639;1291;19265;-52
2022/10/13 00:44:10;;;;;;;;;5.00;5.00;;;;;22.23;52.58;101839.86;105665;1297;18832;-53
2022/10/13 00:46:37;;;;;;;;;9.00;7.00;;;;;22.22;52.42;101842.98;105595;1297;18832;-54
2022/10/13 00:49:04;;;;;;;;;6.00;6.00;;;;;22.22;52.42;101834.09;105631;1288;21458;-52
2022/10/13 00:51:31;;;;;;;;;6.00;6.00;;;;;22.21;52.52;101835.99;105628;1275;18789;-52
2022/10/13 00:53:59;;;;;;;;;6.00;6.00;;;;;22.21;52.48;101831.08;105604;1279;19958;-52
2022/10/13 00:56:26;;;;;;;;;6.00;5.00;;;;;22.21;52.30;101833.27;105649;1288;19229;-51
2022/10/13 00:58:53;;;;;;;;;6.50;5.50;;;;;22.21;52.41;101828.94;105662;1289;20223;-54
2022/10/13 01:01:20;;;;;;;;;6.00;6.00;;;;;22.21;52.32;101830.77;105661;1283;21968;-51
2022/10/13 01:03:48;;;;;;;;;9.50;8.00;;;;;22.21;52.36;101833.81;105575;1282;19324;-52
2022/10/13 01:06:15;;;;;;;;;8.00;8.00;;;;;22.21;52.34;101829.61;105688;1282;20370;-52
2022/10/13 01:08:42;;;;;;;;;7.00;7.00;;;;;22.22;52.11;101827.77;105613;1280;20977;-53
2022/10/13 01:11:09;;;;;;;;;5.50;5.50;;;;;22.21;52.21;101823.13;105662;1275;19743;-54
2022/10/13 01:13:37;;;;;;;;;;;;;;;22.20;52.27;101821.70;105636;1295;21540;-54
2022/10/13 01:16:04;;;;;;;;;6.50;6.50;;;;;22.20;52.39;101820.47;105516;1275;18074;-54
2022/10/13 01:18:31;;;;;;;;;7.00;7.00;;;;;22.20;52.20;101818.11;105545;1275;17970;-51
2022/10/13 01:20:58;;;;;;;;;9.00;7.00;;;;;22.21;52.12;101814.36;105676;1282;19978;-53
2022/10/13 01:23:26;;;;;;;;;6.00;5.50;;;;;22.21;52.12;101812.20;105709;1297;19642;-53
2022/10/13 01:25:53;;;;;;;;;9.00;7.00;;;;;22.20;52.18;101811.21;105730;1285;20138;-51
2022/10/13 01:28:20;;;;;;;;;6.00;6.00;;;;;22.19;52.25;101809.10;105714;1281;18500;-53
2022/10/13 01:30:48;;;;;;;;;9.00;6.00;;;;;22.19;52.19;101806.95;105693;1295;19556;-53
2022/10/13 01:33:15;;;;;;;;;6.00;6.00;;;;;22.19;52.02;101804.94;105694;1275;17953;-51
2022/10/13 01:35:42;;;;;;;;;6.00;6.00;;;;;22.18;51.98;101805.23;105738;1282;19157;-51
2022/10/13 01:38:10;;;;;;;;;6.00;6.00;;;;;22.19;52.02;101804.80;105720;1297;19982;-52
2022/10/13 01:40:38;;;;;;;;;6.00;6.00;;;;;22.18;52.06;101801.76;105687;1282;19616;-53
2022/10/13 01:43:05;;;;;;;;;9.00;7.00;;;;;22.17;51.98;101796.73;105701;1298;18499;-51
2022/10/13 01:45:32;;;;;;;;;9.50;8.50;;;;;22.18;52.02;101800.15;105702;1275;19927;-51
2022/10/13 01:47:59;;;;;;;;;10.00;9.00;;;;;22.17;51.95;101797.33;105701;1289;18091;-51
2022/10/13 01:50:26;;;;;;;;;6.50;6.50;;;;;22.18;51.94;101799.79;105691;1275;19930;-51
2022/10/13 01:52:54;;;;;;;;;10.00;10.00;;;;;22.18;51.92;101797.45;105752;1297;19069;-50
2022/10/13 01:55:21;;;;;;;;;7.00;6.50;;;;;22.17;51.83;101800.23;105733;1280;18220;-52
2022/10/13 01:57:48;;;;;;;;;;;;;;;22.17;51.88;101800.40;105674;1282;20554;-51
2022/10/13 02:00:16;;;;;;;;;11.00;10.00;;;;;22.17;51.82;101799.67;105714;1280;19409;-51
2022/10/13 02:02:43;;;;;;;;;8.00;8.00;;;;;22.17;51.79;101795.73;105724;1281;20107;-52
2022/10/13 02:05:10;;;;;;;;;6.00;6.00;;;;;22.16;51.91;101799.40;105740;1297;18775;-51
2022/10/13 02:07:37;;;;;;;;;6.00;6.00;;;;;22.17;51.93;101799.68;105714;1279;20235;-53
2022/10/13 02:10:05;;;;;;;;;7.00;7.00;;;;;22.15;51.82;101790.36;105695;1282;31060;-55
2022/10/13 02:12:32;;;;;;;;;9.00;9.00;;;;;22.16;51.74;101796.70;105673;1281;20186;-53
2022/10/13 02:14:59;;;;;;;;;;;;;;;22.16;51.77;101793.26;105729;1279;18410;-53
2022/10/13 02:17:27;;;;;;;;;10.50;10.50;;;;;22.15;51.75;101791.69;105739;1285;20027;-54
2022/10/13 02:19:54;;;;;;;;;11.00;10.00;;;;;22.14;51.70;101789.20;105701;1297;21339;-51
2022/10/13 02:22:21;;;;;;;;;6.00;6.00;;;;;22.16;51.70;101787.08;105639;1275;18567;-52
2022/10/13 02:24:48;;;;;;;;;10.00;10.00;;;;;22.16;51.68;101786.27;105654;1272;20923;-51
2022/10/13 02:27:16;;;;;;;;;8.00;7.00;;;;;22.16;51.77;101787.08;105700;1289;19924;-54
2022/10/13 02:29:43;;;;;;;;;10.00;9.00;;;;;22.15;51.68;101782.06;105623;1297;23552;-52
2022/10/13 02:32:11;;;;;;;;;10.00;9.50;;;;;22.15;51.65;101781.17;105679;1301;19039;-52
2022/10/13 02:34:38;;;;;;;;;;;;;;;22.15;51.51;101780.42;105676;1282;20425;-51
2022/10/13 02:37:05;;;;;;;;;9.00;7.00;;;;;22.14;51.62;101775.17;105687;1288;20290;-54
2022/10/13 02:39:32;;;;;;;;;;;;;;;22.14;51.66;101774.14;105681;1297;18093;-54
2022/10/13 02:42:00;;;;;;;;;10.00;10.00;;;;;22.13;51.53;101777.80;105680;1282;20083;-53
2022/10/13 02:44:27;;;;;;;;;8.00;7.00;;;;;22.14;51.41;101779.23;105710;1297;17928;-54
2022/10/13 02:46:54;;;;;;;;;10.00;9.00;;;;;22.13;51.63;101778.20;105744;1289;20400;-51
2022/10/13 02:49:21;;;;;;;;;6.00;6.00;;;;;22.12;51.49;101776.46;105683;1297;20759;-52
2022/10/13 02:51:48;;;;;;;;;10.00;10.00;;;;;22.13;51.32;101775.71;105668;1288;21960;-51
2022/10/13 02:54:16;;;;;;;;;10.00;9.00;;;;;22.13;51.49;101775.81;105663;1289;30043;-53
2022/10/13 02:56:43;;;;;;;;;11.00;10.00;;;;;22.13;51.49;101770.17;105705;1275;18497;-51
2022/10/13 02:59:11;;;;;;;;;10.00;10.00;;;;;22.12;51.48;101769.70;105745;1297;18714;-53
2022/10/13 03:01:40;;;;;;;;;7.00;6.00;;;;;22.12;51.34;101770.83;105673;1281;20866;-55
2022/10/13 03:04:07;;;;;;;;;11.50;11.50;;;;;22.12;51.33;101768.29;105699;1289;21565;-55
2022/10/13 03:06:34;;;;;;;;;13.00;11.00;;;;;22.11;51.26;101769.61;105692;1282;19777;-51
2022/10/13 03:09:02;;;;;;;;;7.00;7.00;;;;;22.11;51.34;101769.27;105692;1282;19456;-52
2022/10/13 03:11:29;;;;;;;;;14.00;14.00;;;;;22.11;51.33;101770.54;105707;1275;19154;-51
2022/10/13 03:13:57;;;;;;;;;13.50;12.00;;;;;22.11;51.13;101763.33;105589;1288;103462;-52
2022/10/13 03:16:24;;;;;;;;;9.00;9.00;;;;;22.10;51.34;101765.70;105694;1280;19592;-52
2022/10/13 03:18:51;;;;;;;;;9.00;7.00;;;;;22.10;51.23;101758.16;105696;1275;20179;-53
2022/10/13 03:21:18;;;;;;;;;13.00;13.00;;;;;22.10;51.12;101760.83;105692;1288;19522;-53
2022/10/13 03:23:46;;;;;;;;;;;;;;;22.10;51.24;101759.02;105701;1280;21534;-52
2022/10/13 03:26:14;;;;;;;;;9.00;9.00;;;;;22.10;51.13;101756.08;105762;1297;18622;-51
2022/10/13 03:28:41;;;;;;;;;13.00;13.00;;;;;22.10;51.12;101755.61;105697;1275;17904;-52
2022/10/13 03:31:08;;;;;;;;;11.00;11.00;;;;;22.09;51.15;101755.25;105648;1280;17949;-54
2022/10/13 03:33:36;;;;;;;;;9.00;9.00;;;;;22.10;51.06;101754.67;105678;1289;22059;-52
2022/10/13 03:36:03;;;;;;;;;10.00;10.00;;;;;22.09;51.15;101757.10;105690;1297;21597;-52
2022/10/13 03:38:30;;;;;;;;;15.00;15.00;;;;;22.09;51.09;101753.50;105709;1282;17991;-53
2022/10/13 03:40:57;;;;;;;;;10.00;7.00;;;;;22.09;51.09;101757.64;105731;1275;18441;-55
2022/10/13 03:43:25;;;;;;;;;10.00;10.00;;;;;22.09;50.98;101757.27;105701;1289;20309;-52
2022/10/13 03:45:52;;;;;;;;;11.00;10.00;;;;;22.10;51.09;101754.88;105705;1289;19122;-51
2022/10/13 03:48:19;;;;;;;;;10.00;10.00;;;;;22.09;51.06;101750.57;105705;1274;18546;-51
2022/10/13 03:50:46;;;;;;;;;11.00;11.00;;;;;22.08;50.96;101750.83;105676;1288;18700;-52
2022/10/13 03:53:14;;;;;;;;;13.00;13.00;;;;;22.08;50.97;101750.27;105707;1297;21805;-54
2022/10/13 03:55:41;;;;;;;;;19.00;19.00;;;;;22.09;50.98;101755.15;105673;1295;20006;-53
2022/10/13 03:58:08;;;;;;;;;17.00;13.00;;;;;22.08;50.94;101753.94;105697;1296;20054;-52
2022/10/13 04:00:36;;;;;;;;;;;;;;;22.08;50.95;101761.20;105700;1272;18299;-54
2022/10/13 04:03:03;;;;;;;;;14.00;13.00;;;;;22.08;50.84;101762.46;105687;1280;19516;-53
2022/10/13 04:05:30;;;;;;;;;19.00;18.00;;;;;22.07;50.88;101761.89;105698;1282;18031;-52
2022/10/13 04:07:57;;;;;;;;;14.00;14.00;;;;;22.07;50.91;101764.61;105708;1297;21530;-53
2022/10/13 04:10:25;;;;;;;;;17.50;17.50;;;;;22.06;50.84;101763.80;105641;1288;18505;-52
2022/10/13 04:12:52;;;;;;;;;18.00;18.00;;;;;22.06;50.76;101760.88;105596;1279;18765;-54
2022/10/13 04:15:19;;;;;;;;;14.00;13.00;;;;;22.05;50.83;101758.95;105617;1288;19965;-52
2022/10/13 04:17:46;;;;;;;;;14.50;13.50;;;;;22.05;50.62;101761.73;105601;1285;20444;-52
2022/10/13 04:20:13;;;;;;;;;13.00;11.00;;;;;22.05;50.95;101760.48;105627;1297;18458;-52
2022/10/13 04:22:41;;;;;;;;;19.50;18.50;;;;;22.06;50.64;101760.20;105638;1282;20862;-54
2022/10/13 04:25:08;;;;;;;;;;;;;;;22.06;50.62;101756.55;105638;1295;18816;-52
2022/10/13 04:27:37;;;;;;;;;17.00;15.00;;;;;22.05;50.56;101759.69;105626;1275;18488;-52
2022/10/13 04:30:04;;;;;;;;;13.00;11.00;;;;;22.05;50.82;101749.70;105619;1297;18008;-51
2022/10/13 04:32:31;;;;;;;;;9.00;9.00;;;;;22.05;50.69;101748.48;105639;1272;18533;-55
2022/10/13 04:34:59;;;;;;;;;19.00;19.00;;;;;22.05;50.76;101748.27;105700;1289;20261;-51
2022/10/13 04:37:26;;;;;;;;;13.67;13.00;;;;;22.04;50.68;101749.70;105630;1297;17996;-54
2022/10/13 04:39:54;;;;;;;;;15.00;15.00;;;;;22.04;50.67;101752.20;105592;1282;20307;-54
2022/10/13 04:42:21;;;;;;;;;14.00;13.50;;;;;22.05;50.61;101753.19;105643;1278;20281;-51
2022/10/13 04:44:48;;;;;;;;;17.00;15.00;;;;;22.03;50.58;101749.33;105599;1281;21310;-51
2022/10/13 04:47:15;;;;;;;;;18.00;17.50;;;;;22.03;50.70;101747.39;105753;1303;21898;-56
2022/10/13 04:49:43;;;;;;;;;15.00;14.00;;;;;22.03;50.73;101742.98;105684;1297;18710;-53
2022/10/13 04:52:10;;;;;;;;;9.50;9.50;;;;;22.03;50.58;101739.20;105636;1279;19760;-50
2022/10/13 04:54:37;;;;;;;;;19.00;18.00;;;;;22.02;50.45;101741.81;105650;1275;18937;-50
2022/10/13 04:57:04;;;;;;;;;13.00;13.00;;;;;22.06;50.37;101743.23;105665;1282;18846;-50
2022/10/13 04:59:31;;;;;;;;;10.00;10.00;;;;;22.05;50.46;101736.43;105722;1281;19488;-50
2022/10/13 05:01:59;;;;;;;;;10.00;9.50;;;;;22.05;50.73;101739.51;105674;1298;19197;-52
2022/10/13 05:04:26;;;;;;;;;10.00;9.00;;;;;22.06;50.88;101740.28;105640;1280;20104;-49
2022/10/13 05:06:54;;;;;;;;;13.00;13.00;;;;;22.08;50.90;101737.52;105549;1272;19238;-53
2022/10/13 05:09:21;;;;;;;;;35.00;30.00;;;;;22.12;50.92;101741.32;105551;1282;20016;-51
2022/10/13 05:11:49;;;;;;;;;150.00;108.00;;;;;22.14;50.94;101736.39;105601;1272;19970;-50
2022/10/13 05:14:16;;;;;;;;;140.00;104.00;;;;;22.15;51.07;101740.01;105625;1280;18629;-51
2022/10/13 05:16:43;;;;;;;;;;;;;;;22.17;50.99;101737.28;105629;1279;18550;-54
2022/10/13 05:19:10;;;;;;;;;108.00;81.00;;;;;22.17;51.12;101739.40;105571;1279;21629;-55
2022/10/13 05:21:38;;;;;;;;;99.00;69.00;;;;;22.17;51.23;101741.02;105521;1281;18589;-53
2022/10/13 05:24:05;;;;;;;;;81.00;61.00;;;;;22.20;51.16;101738.20;105646;1280;20068;-50
2022/10/13 05:26:32;;;;;;;;;102.00;80.00;;;;;22.22;51.28;101735.09;105680;1297;19895;-51
2022/10/13 05:28:59;;;;;;;;;96.00;74.00;;;;;22.23;51.71;101732.02;105683;1297;18419;-51
2022/10/13 05:31:27;;;;;;;;;80.00;63.00;;;;;22.24;51.69;101731.02;105627;1282;20070;-50
2022/10/13 05:33:54;;;;;;;;;78.00;58.00;;;;;22.25;51.86;101733.63;105610;1275;20032;-51
2022/10/13 05:36:21;;;;;;;;;72.00;54.50;;;;;22.25;52.12;101731.27;105630;1280;19757;-54
2022/10/13 05:38:49;;;;;;;;;61.00;49.00;;;;;22.25;51.91;101727.81;105610;1281;20167;-54
2022/10/13 05:41:16;;;;;;;;;53.00;41.00;;;;;22.25;51.79;101722.87;105667;1297;21945;-52
2022/10/13 05:43:43;;;;;;;;;46.50;39.00;;;;;22.22;51.95;101719.70;105677;1280;17999;-54
2022/10/13 05:46:11;;;;;;;;;41.50;37.50;;;;;22.21;51.97;101718.77;105624;1297;20197;-51
2022/10/13 05:48:38;;;;;;;;;41.00;39.00;;;;;22.19;51.86;101723.52;105565;1282;18492;-55
2022/10/13 05:51:06;;;;;;;;;;;;;;;22.20;51.73;101726.04;105664;1280;18162;-51
2022/10/13 05:53:33;;;;;;;;;31.50;28.00;;;;;22.19;51.53;101723.92;105550;1297;19116;-51
2022/10/13 05:56:04;;;;;;;;;32.00;30.00;;;;;22.18;51.47;101725.80;105524;1275;21555;-55
2022/10/13 05:58:32;;;;;;;;;23.00;21.00;;;;;22.19;51.39;101719.94;105629;1289;19558;-51
2022/10/13 06:00:59;;;;;;;;;28.00;23.00;;;;;22.21;51.47;101715.19;105643;1295;18510;-51
2022/10/13 06:03:26;;;;;;;;;;;;;;;22.23;51.30;101712.91;105615;1295;19974;-51
2022/10/13 06:05:54;;;;;;;;;24.00;19.00;;;;;22.25;51.22;101718.73;105646;1281;19557;-52
2022/10/13 06:08:21;;;;;;;;;19.00;18.00;;;;;22.26;51.26;101717.71;105682;1297;20194;-51
2022/10/13 06:10:48;;;;;;;;;20.00;18.50;;;;;22.28;51.37;101719.14;105659;1275;20264;-55
2022/10/13 06:13:15;;;;;;;;;;;;;;;22.30;51.22;101716.36;105662;1282;19633;-51
2022/10/13 06:15:43;;;;;;;;;22.00;18.00;;;;;22.32;51.09;101713.65;105699;1275;18488;-50
2022/10/13 06:18:10;;;;;;;;;20.00;17.50;;;;;22.35;51.05;101719.77;105678;1281;17813;-50
2022/10/13 06:20:37;;;;;;;;;19.00;17.00;;;;;22.39;51.12;101721.59;105647;1280;18310;-53
2022/10/13 06:23:04;;;;;;;;;17.00;15.00;;;;;22.41;51.16;101720.41;105594;1272;19968;-52
2022/10/13 06:25:32;;;;;;;;;15.50;14.50;;;;;22.43;50.97;101720.08;105637;1296;20078;-53
2022/10/13 06:27:59;;;;;;;;;13.00;11.00;;;;;22.44;50.88;101714.48;105642;1282;19936;-50
2022/10/13 06:30:27;;;;;;;;;16.00;15.00;;;;;22.46;51.05;101709.94;105624;1280;19935;-50
2022/10/13 06:32:55;;;;;;;;;15.00;12.00;;;;;22.47;50.92;101708.27;105642;1280;20016;-51
2022/10/13 06:35:22;;;;;;;;;18.00;14.00;;;;;22.49;50.67;101704.84;105662;1280;19506;-52
2022/10/13 06:37:49;;;;;;;;;13.00;11.50;;;;;22.50;50.66;101703.61;105625;1275;19968;-51
2022/10/13 06:40:16;;;;;;;;;13.00;12.00;;;;;22.50;50.43;101705.45;105579;1274;20133;-53
2022/10/13 06:42:44;;;;;;;;;12.00;11.00;;;;;22.53;50.45;101709.88;105652;1275;19721;-51
2022/10/13 06:45:11;;;;;;;;;16.00;14.00;;;;;22.55;50.30;101710.56;105644;1291;20005;-51
2022/10/13 06:47:38;;;;;;;;;15.00;11.00;;;;;22.57;50.29;101706.13;105642;1297;19246;-54
2022/10/13 06:50:06;;;;;;;;;13.00;11.00;;;;;22.59;50.23;101705.38;105651;1280;24139;-54
2022/10/13 06:52:33;;;;;;;;;12.00;11.00;;;;;22.61;50.20;101708.60;105625;1288;20030;-51
2022/10/13 06:55:00;;;;;;;;;13.33;11.00;;;;;22.63;50.05;101708.77;105572;1289;18443;-54
2022/10/13 06:57:27;;;;;;;;;;;;;;;22.66;50.04;101701.67;105610;1287;19416;-52
2022/10/13 06:59:55;;;;;;;;;11.50;10.00;;;;;22.69;49.99;101701.92;105651;1289;18816;-53
2022/10/13 07:02:22;;;;;;;;;15.00;9.50;;;;;22.72;50.15;101703.98;105647;1297;18081;-51
2022/10/13 07:04:49;;;;;;;;;11.00;11.00;;;;;22.74;50.04;101700.71;105649;1297;19615;-50
2022/10/13 07:07:16;;;;;;;;;11.00;10.00;;;;;22.76;50.16;101695.77;105594;1282;19548;-51
2022/10/13 07:09:44;;;;;;;;;12.00;10.00;;;;;22.78;50.11;101695.66;105662;1279;18441;-54
2022/10/13 07:12:11;;;;;;;;;10.00;10.00;;;;;22.78;49.86;101694.71;105534;1280;19149;-50
2022/10/13 07:14:38;;;;;;;;;;;;;;;22.81;49.84;101695.30;105678;1282;21569;-49
2022/10/13 07:17:05;;;;;;;;;13.00;10.00;;;;;22.83;49.83;101689.30;105631;1289;18846;-51
2022/10/13 07:19:33;;;;;;;;;10.00;8.00;;;;;22.84;49.73;101687.42;105555;1275;19576;-51
2022/10/13 07:22:00;;;;;;;;;11.00;11.00;;;;;22.87;49.70;101685.59;105612;1279;20340;-50
2022/10/13 07:24:27;;;;;;;;;13.33;11.00;;;;;22.88;49.67;101688.20;105633;1280;20242;-50
2022/10/13 07:26:54;;;;;;;;;13.00;10.50;;;;;22.91;49.61;101688.59;105653;1287;19482;-54
2022/10/13 07:29:22;;;;;;;;;10.00;9.00;;;;;22.94;49.56;101683.17;105664;1301;18482;-52
2022/10/13 07:31:49;;;;;;;;;10.00;8.00;;;;;22.95;49.72;101680.21;105560;1280;19300;-53
2022/10/13 07:34:17;;;;;;;;;8.00;8.00;;;;;22.97;49.58;101681.73;105598;1282;19660;-54
2022/10/13 07:36:44;;;;;;;;;10.00;10.00;;;;;22.98;49.60;101687.87;105675;1289;18500;-50
2022/10/13 07:39:12;;;;;;;;;11.00;10.00;;;;;22.97;49.41;101689.63;105635;1272;18379;-52
2022/10/13 07:41:40;;;;;;;;;10.00;8.00;;;;;22.96;49.48;101686.79;105681;1296;19501;-55
2022/10/13 07:44:07;;;;;;;;;12.00;12.00;;;;;22.95;49.44;101680.33;105708;1280;18486;-50
2022/10/13 07:46:34;;;;;;;;;11.00;10.00;;;;;22.96;49.35;101671.20;105708;1288;18512;-55
2022/10/13 07:49:01;;;;;;;;;26.00;23.00;;;;;22.94;49.35;101668.22;105499;1275;19476;-55
2022/10/13 07:51:29;;;;;;;;;48.00;38.50;;;;;22.95;49.49;101669.39;105403;1279;21022;-56
2022/10/13 07:53:56;;;;;;;;;74.50;53.00;;;;;22.96;49.56;101676.05;105524;1282;21157;-54
2022/10/13 07:56:23;;;;;;;;;79.00;58.50;;;;;22.98;49.48;101675.68;105469;1279;24814;-55
2022/10/13 07:58:50;;;;;;;;;78.00;56.00;;;;;22.99;49.65;101672.46;105400;1279;20184;-52
2022/10/13 08:01:17;;;;;;;;;70.00;52.00;;;;;23.02;49.47;101670.28;105476;1297;20005;-55
2022/10/13 08:03:45;;;;;;;;;65.00;46.00;;;;;23.05;49.66;101673.04;105564;1279;18653;-53
2022/10/13 08:06:12;;;;;;;;;46.00;38.00;;;;;23.04;49.44;101669.35;105467;1288;20152;-55
2022/10/13 08:08:40;;;;;;;;;;;;;;;23.04;49.41;101665.15;105541;1297;21881;-55
2022/10/13 08:11:07;;;;;;;;;;;;;;;23.02;49.49;101660.65;105645;1297;19174;-53
2022/10/13 08:13:35;;;;;;;;;29.00;26.00;;;;;23.06;49.51;101645.19;105623;1282;20279;-53
2022/10/13 08:16:02;;;;;;;;;32.00;25.00;;;;;23.13;49.40;101648.45;105635;1275;19215;-52
2022/10/13 08:18:29;;;;;;;;;29.50;25.50;;;;;23.12;48.91;101648.40;105511;1289;29684;-50
2022/10/13 08:20:56;;;;;;;;;31.00;24.50;;;;;23.10;48.48;101643.48;105674;1278;20138;-50
2022/10/13 08:23:24;;;;;;;;;19.00;19.00;;;;;23.12;48.49;101638.90;105589;1272;21734;-52
2022/10/13 08:25:51;;;;;;;;;21.00;19.00;;;;;23.18;48.33;101634.26;105558;1275;19794;-51
2022/10/13 08:28:18;;;;;;;;;19.00;17.50;;;;;23.24;48.32;101638.53;105551;1279;20215;-52
2022/10/13 08:30:45;;;;;;;;;;;;;;;23.27;48.22;101639.58;105491;1297;18587;-52
2022/10/13 08:33:13;;;;;;;;;27.50;25.50;;;;;23.21;47.76;101639.05;105622;1282;17458;-50
2022/10/13 08:35:41;;;;;;;;;30.00;27.50;;;;;23.09;46.54;101635.56;105634;1289;19862;-53
2022/10/13 08:38:08;;;;;;;;;33.50;26.00;;;;;22.96;45.65;101633.26;105603;1297;19093;-53
2022/10/13 08:40:35;;;;;;;;;24.00;22.50;;;;;22.83;44.65;101635.30;105624;1297;18035;-56
2022/10/13 08:43:02;;;;;;;;;27.50;25.50;;;;;22.77;44.25;101633.82;105594;1283;18668;-53
2022/10/13 08:45:30;;;;;;;;;24.50;22.50;;;;;22.77;44.03;101634.15;105517;1287;19119;-52
2022/10/13 08:47:57;;;;;;;;;30.00;24.00;;;;;22.78;43.71;101626.20;105592;1278;18233;-53
2022/10/13 08:50:24;;;;;;;;;24.00;24.00;;;;;22.86;43.40;101627.75;105518;1297;20482;-52
2022/10/13 08:52:51;;;;;;;;;24.50;21.50;;;;;22.85;42.96;101619.62;105580;1275;20324;-53
2022/10/13 08:55:19;;;;;;;;;27.00;24.00;;;;;22.84;42.57;101617.88;105603;1279;18033;-52
2022/10/13 08:57:46;;;;;;;;;21.00;20.00;;;;;22.79;41.86;101622.17;105591;1279;18659;-53
2022/10/13 09:00:13;;;;;;;;;20.00;18.00;;;;;22.64;41.72;101622.14;105568;1291;18499;-53
2022/10/13 09:02:41;;;;;;;;;;;;;;;22.57;41.65;101619.43;105607;1295;22371;-55
2022/10/13 09:05:08;;;;;;;;;21.00;21.00;;;;;22.47;41.39;101621.21;105639;1301;19308;-54
2022/10/13 09:07:35;;;;;;;;;19.00;18.00;;;;;22.22;41.07;101614.87;105671;1282;17849;-51
2022/10/13 09:10:02;;;;;;;;;21.00;18.00;;;;;22.23;41.18;101610.09;105630;1288;19542;-52
2022/10/13 09:12:30;;;;;;;;;;;;;;;22.15;41.19;101607.79;105698;1297;18827;-54
2022/10/13 09:14:58;;;;;;;;;23.00;20.00;;;;;22.18;40.94;101610.63;105625;1278;20196;-54
2022/10/13 09:17:26;;;;;;;;;21.00;18.50;;;;;21.99;40.80;101605.26;105695;1280;22044;-55
2022/10/13 09:19:53;;;;;;;;;17.00;17.00;;;;;21.93;40.45;101608.30;105673;1275;18932;-55
2022/10/13 09:22:20;;;;;;;;;20.50;18.50;;;;;21.70;40.36;101608.60;105711;1282;19992;-56
2022/10/13 09:24:47;;;;;;;;;17.00;16.00;;;;;21.70;40.26;101612.77;105587;1291;19857;-53
2022/10/13 09:27:15;;;;;;;;;18.50;17.00;;;;;21.78;40.26;101611.77;105474;1281;21358;-51
2022/10/13 09:29:42;;;;;;;;;23.00;18.00;;;;;21.84;39.92;101612.76;105500;1297;18497;-55
2022/10/13 09:32:09;;;;;;;;;21.00;18.00;;;;;21.91;39.99;101603.09;105534;1297;17975;-53
2022/10/13 09:34:36;;;;;;;;;19.00;18.00;;;;;21.89;39.81;101596.36;105490;1281;21602;-51
2022/10/13 09:37:04;;;;;;;;;17.00;15.00;;;;;21.78;39.80;101595.75;105509;1282;18453;-58
2022/10/13 09:39:31;;;;;;;;;19.00;18.00;;;;;21.70;39.74;101607.33;105447;1284;19814;-53
2022/10/13 09:41:58;;;;;;;;;18.00;17.00;;;;;21.68;39.86;101604.46;105509;1289;20096;-54
2022/10/13 09:44:26;;;;;;;;;17.00;16.00;;;;;21.77;39.64;101604.04;105519;1274;20302;-54
2022/10/13 09:46:53;;;;;;;;;19.00;18.00;;;;;21.70;39.65;101604.27;105515;1282;19210;-52
2022/10/13 09:49:20;;;;;;;;;17.50;17.00;;;;;21.74;39.83;101598.52;105493;1275;21255;-53
2022/10/13 09:51:48;;;;;;;;;17.00;15.00;;;;;21.89;39.72;101591.30;105565;1285;20154;-55
2022/10/13 09:54:15;;;;;;;;;15.00;14.00;;;;;21.98;39.54;101588.33;105653;1281;20748;-55
2022/10/13 09:56:42;;;;;;;;;12.00;12.00;;;;;22.00;39.49;101584.86;105465;1282;21979;-54
2022/10/13 09:59:09;;;;;;;;;17.00;14.00;;;;;21.99;39.45;101584.02;105648;1289;20199;-54
2022/10/13 10:01:37;;;;;;;;;17.00;16.50;;;;;21.97;39.29;101587.20;105543;1296;29428;-52
2022/10/13 10:04:04;;;;;;;;;14.00;14.00;;;;;21.94;39.21;101582.06;105483;1297;20343;-56
2022/10/13 10:06:31;;;;;;;;;15.00;15.00;;;;;21.96;39.18;101580.92;105489;1275;22677;-56
2022/10/13 10:08:58;;;;;;;;;14.00;14.00;;;;;21.89;39.18;101580.02;105510;1288;19828;-53
2022/10/13 10:11:26;;;;;;;;;18.00;16.00;;;;;21.90;38.98;101580.48;105541;1282;20199;-52
2022/10/13 10:13:54;;;;;;;;;13.50;13.00;;;;;21.83;39.09;101576.27;105545;1282;20026;-52
2022/10/13 10:16:23;;;;;;;;;12.00;10.50;;;;;21.92;39.07;101569.48;105581;1295;21709;-55
2022/10/13 10:18:50;;;;;;;;;13.00;11.00;;;;;21.98;38.90;101571.40;105563;1297;20471;-55
2022/10/13 10:21:18;;;;;;;;;;;;;;;21.93;38.89;101569.17;105573;1285;18508;-53
2022/10/13 10:23:45;;;;;;;;;14.00;13.00;;;;;21.90;38.74;101567.01;105556;1282;18936;-53
2022/10/13 10:26:12;;;;;;;;;11.00;11.00;;;;;21.86;38.45;101567.41;105520;1297;20129;-53
2022/10/13 10:28:40;;;;;;;;;10.00;10.00;;;;;21.80;38.28;101564.34;105546;1274;20067;-55
2022/10/13 10:31:07;;;;;;;;;11.00;10.00;;;;;21.74;38.08;101561.19;105546;1297;19796;-54
2022/10/13 10:33:34;;;;;;;;;;;;;;;21.65;38.22;101559.80;105574;1297;18810;-52
2022/10/13 10:36:01;;;;;;;;;11.00;11.00;;;;;21.65;38.01;101557.90;105539;1297;20245;-51
2022/10/13 10:38:29;;;;;;;;;11.00;11.00;;;;;21.69;37.93;101561.84;105472;1297;18194;-53
2022/10/13 10:40:56;;;;;;;;;16.00;14.00;;;;;21.69;37.87;101559.19;105620;1289;20293;-51
2022/10/13 10:43:23;;;;;;;;;11.00;11.00;;;;;21.71;37.96;101555.52;105582;1274;18491;-55
2022/10/13 10:45:50;;;;;;;;;11.00;11.00;;;;;21.75;38.05;101554.63;105563;1281;19742;-56
2022/10/13 10:48:18;;;;;;;;;17.00;14.00;;;;;21.79;38.01;101557.65;105580;1281;20593;-54
2022/10/13 10:50:45;;;;;;;;;13.00;13.00;;;;;21.75;38.02;101550.81;105572;1275;20203;-53
2022/10/13 10:53:12;;;;;;;;;16.00;14.00;;;;;21.81;38.20;101551.31;105582;1282;18001;-54
2022/10/13 10:55:40;;;;;;;;;16.00;13.50;;;;;21.83;38.00;101545.21;105562;1289;21609;-53
2022/10/13 10:58:07;;;;;;;;;;;;;;;21.84;38.02;101535.94;105638;1282;20384;-51
2022/10/13 11:00:34;;;;;;;;;14.50;13.50;;;;;21.71;38.15;101536.85;105538;1297;18468;-51
2022/10/13 11:03:01;;;;;;;;;12.00;12.00;;;;;21.75;38.06;101536.21;105488;1290;21959;-52
2022/10/13 11:05:29;;;;;;;;;13.00;13.00;;;;;21.76;38.12;101527.72;105511;1297;23089;-52
2022/10/13 11:07:56;;;;;;;;;11.50;10.00;;;;;21.80;38.36;101520.06;105535;1282;18304;-50
2022/10/13 11:10:25;;;;;;;;;13.00;11.50;;;;;21.84;38.69;101517.18;105512;1297;20190;-54
2022/10/13 11:12:52;;;;;;;;;;;;;;;21.84;39.11;101514.89;105482;1297;21003;-54